sensor_id;sensor_type;location;lat;lon;timestamp;P1;durP1;ratioP1;P2;durP2;ratioP2
51838;SDS011;37886;53.174;6.368;2023-02-28T00:00:21;55.40;;;19.17;;
51838;SDS011;37886;53.174;6.368;2023-02-28T00:02:47;48.28;;;20.27;;
51838;SDS011;37886;53.174;6.368;2023-02-28T00:05:14;58.08;;;25.98;;
51838;SDS011;37886;53.174;6.368;2023-02-28T00:07:42;40.35;;;19.42;;
51838;SDS011;37886;53.174;6.368;2023-02-28T00:10:09;37.10;;;14.90;;
51838;SDS011;37886;53.174;6.368;2023-02-28T00:12:39;37.45;;;14.93;;
51838;SDS011;37886;53.174;6.368;2023-02-28T00:15:06;35.45;;;13.93;;
51838;SDS011;37886;53.174;6.368;2023-02-28T00:17:36;37.53;;;14.50;;
51838;SDS011;37886;53.174;6.368;2023-02-28T00:20:03;34.55;;;12.45;;
51838;SDS011;37886;53.174;6.368;2023-02-28T00:22:33;36.85;;;14.35;;
51838;SDS011;37886;53.174;6.368;2023-02-28T00:24:58;36.67;;;13.93;;
51838;SDS011;37886;53.174;6.368;2023-02-28T00:27:24;34.88;;;14.38;;
51838;SDS011;37886;53.174;6.368;2023-02-28T00:29:50;29.88;;;15.55;;
51838;SDS011;37886;53.174;6.368;2023-02-28T00:32:15;31.50;;;11.52;;
51838;SDS011;37886;53.174;6.368;2023-02-28T00:34:41;21.63;;;10.70;;
51838;SDS011;37886;53.174;6.368;2023-02-28T00:37:07;19.80;;;9.77;;
51838;SDS011;37886;53.174;6.368;2023-02-28T00:39:36;30.52;;;10.75;;
51838;SDS011;37886;53.174;6.368;2023-02-28T00:42:03;21.65;;;10.60;;
51838;SDS011;37886;53.174;6.368;2023-02-28T00:44:30;25.52;;;10.05;;
51838;SDS011;37886;53.174;6.368;2023-02-28T00:46:56;23.25;;;10.32;;
51838;SDS011;37886;53.174;6.368;2023-02-28T00:49:22;24.13;;;9.85;;
51838;SDS011;37886;53.174;6.368;2023-02-28T00:51:48;24.13;;;12.80;;
51838;SDS011;37886;53.174;6.368;2023-02-28T00:54:15;20.00;;;12.55;;
51838;SDS011;37886;53.174;6.368;2023-02-28T00:56:41;20.83;;;11.20;;
51838;SDS011;37886;53.174;6.368;2023-02-28T00:59:07;25.48;;;8.80;;
51838;SDS011;37886;53.174;6.368;2023-02-28T01:01:32;20.90;;;10.13;;
51838;SDS011;37886;53.174;6.368;2023-02-28T01:03:58;18.08;;;8.98;;
51838;SDS011;37886;53.174;6.368;2023-02-28T01:06:24;21.95;;;8.68;;
51838;SDS011;37886;53.174;6.368;2023-02-28T01:08:50;26.80;;;9.88;;
51838;SDS011;37886;53.174;6.368;2023-02-28T01:11:16;29.92;;;9.73;;
51838;SDS011;37886;53.174;6.368;2023-02-28T01:13:43;17.70;;;9.07;;
51838;SDS011;37886;53.174;6.368;2023-02-28T01:16:10;17.73;;;9.82;;
51838;SDS011;37886;53.174;6.368;2023-02-28T01:18:36;19.77;;;9.48;;
51838;SDS011;37886;53.174;6.368;2023-02-28T01:21:03;13.43;;;8.73;;
51838;SDS011;37886;53.174;6.368;2023-02-28T01:23:37;14.00;;;8.32;;
51838;SDS011;37886;53.174;6.368;2023-02-28T01:26:07;19.60;;;8.75;;
51838;SDS011;37886;53.174;6.368;2023-02-28T01:28:35;23.98;;;8.98;;
51838;SDS011;37886;53.174;6.368;2023-02-28T01:31:01;20.02;;;9.10;;
51838;SDS011;37886;53.174;6.368;2023-02-28T01:33:27;13.18;;;8.05;;
51838;SDS011;37886;53.174;6.368;2023-02-28T01:35:57;25.52;;;9.85;;
51838;SDS011;37886;53.174;6.368;2023-02-28T01:38:31;27.45;;;8.95;;
51838;SDS011;37886;53.174;6.368;2023-02-28T01:40:56;19.30;;;8.82;;
51838;SDS011;37886;53.174;6.368;2023-02-28T01:43:23;20.23;;;9.20;;
51838;SDS011;37886;53.174;6.368;2023-02-28T01:46:13;20.73;;;9.32;;
51838;SDS011;37886;53.174;6.368;2023-02-28T01:48:52;17.80;;;8.07;;
51838;SDS011;37886;53.174;6.368;2023-02-28T01:51:28;15.88;;;8.63;;
51838;SDS011;37886;53.174;6.368;2023-02-28T01:54:03;18.52;;;8.50;;
51838;SDS011;37886;53.174;6.368;2023-02-28T01:56:38;23.10;;;9.82;;
51838;SDS011;37886;53.174;6.368;2023-02-28T01:59:31;18.50;;;9.38;;
51838;SDS011;37886;53.174;6.368;2023-02-28T02:02:05;23.08;;;8.95;;
51838;SDS011;37886;53.174;6.368;2023-02-28T02:04:32;25.48;;;9.32;;
51838;SDS011;37886;53.174;6.368;2023-02-28T02:07:02;17.17;;;8.77;;
51838;SDS011;37886;53.174;6.368;2023-02-28T02:09:28;18.13;;;9.05;;
51838;SDS011;37886;53.174;6.368;2023-02-28T02:11:54;22.67;;;9.02;;
51838;SDS011;37886;53.174;6.368;2023-02-28T02:17:09;22.50;;;9.25;;
51838;SDS011;37886;53.174;6.368;2023-02-28T02:22:47;26.10;;;9.32;;
51838;SDS011;37886;53.174;6.368;2023-02-28T02:25:53;24.20;;;9.00;;
51838;SDS011;37886;53.174;6.368;2023-02-28T02:37:02;18.95;;;9.57;;
51838;SDS011;37886;53.174;6.368;2023-02-28T02:42:20;19.20;;;9.50;;
51838;SDS011;37886;53.174;6.368;2023-02-28T02:45:47;18.70;;;8.52;;
51838;SDS011;37886;53.174;6.368;2023-02-28T02:48:01;21.17;;;8.80;;
51838;SDS011;37886;53.174;6.368;2023-02-28T02:50:31;18.98;;;8.98;;
51838;SDS011;37886;53.174;6.368;2023-02-28T02:53:02;22.67;;;8.95;;
51838;SDS011;37886;53.174;6.368;2023-02-28T02:55:31;28.10;;;9.07;;
51838;SDS011;37886;53.174;6.368;2023-02-28T02:58:02;18.15;;;8.68;;
51838;SDS011;37886;53.174;6.368;2023-02-28T03:00:37;22.38;;;9.88;;
51838;SDS011;37886;53.174;6.368;2023-02-28T03:03:08;19.65;;;9.63;;
51838;SDS011;37886;53.174;6.368;2023-02-28T03:05:39;17.65;;;8.70;;
51838;SDS011;37886;53.174;6.368;2023-02-28T03:08:09;18.45;;;9.25;;
51838;SDS011;37886;53.174;6.368;2023-02-28T03:10:40;21.27;;;8.88;;
51838;SDS011;37886;53.174;6.368;2023-02-28T03:16:02;18.30;;;8.68;;
51838;SDS011;37886;53.174;6.368;2023-02-28T03:18:36;23.98;;;9.10;;
51838;SDS011;37886;53.174;6.368;2023-02-28T03:21:23;21.52;;;8.93;;
51838;SDS011;37886;53.174;6.368;2023-02-28T03:24:07;22.00;;;8.63;;
51838;SDS011;37886;53.174;6.368;2023-02-28T03:26:39;15.70;;;8.15;;
51838;SDS011;37886;53.174;6.368;2023-02-28T03:31:50;15.15;;;9.00;;
51838;SDS011;37886;53.174;6.368;2023-02-28T03:34:48;21.67;;;8.70;;
51838;SDS011;37886;53.174;6.368;2023-02-28T03:37:32;19.95;;;10.32;;
51838;SDS011;37886;53.174;6.368;2023-02-28T03:40:06;19.63;;;8.32;;
51838;SDS011;37886;53.174;6.368;2023-02-28T03:42:39;18.23;;;9.18;;
51838;SDS011;37886;53.174;6.368;2023-02-28T03:45:17;15.95;;;8.73;;
51838;SDS011;37886;53.174;6.368;2023-02-28T03:47:54;22.35;;;8.73;;
51838;SDS011;37886;53.174;6.368;2023-02-28T03:50:38;20.88;;;9.43;;
51838;SDS011;37886;53.174;6.368;2023-02-28T03:58:38;15.65;;;11.57;;
51838;SDS011;37886;53.174;6.368;2023-02-28T04:03:40;15.70;;;10.75;;
51838;SDS011;37886;53.174;6.368;2023-02-28T04:06:13;25.50;;;11.82;;
51838;SDS011;37886;53.174;6.368;2023-02-28T04:08:41;18.30;;;13.10;;
51838;SDS011;37886;53.174;6.368;2023-02-28T04:11:12;21.60;;;13.30;;
51838;SDS011;37886;53.174;6.368;2023-02-28T04:14:02;20.42;;;14.85;;
51838;SDS011;37886;53.174;6.368;2023-02-28T04:16:29;23.83;;;16.88;;
51838;SDS011;37886;53.174;6.368;2023-02-28T04:18:56;29.15;;;17.27;;
51838;SDS011;37886;53.174;6.368;2023-02-28T04:21:34;28.58;;;16.77;;
51838;SDS011;37886;53.174;6.368;2023-02-28T04:24:01;25.85;;;17.52;;
51838;SDS011;37886;53.174;6.368;2023-02-28T04:26:28;22.00;;;16.92;;
51838;SDS011;37886;53.174;6.368;2023-02-28T04:28:58;28.70;;;18.05;;
51838;SDS011;37886;53.174;6.368;2023-02-28T04:31:24;25.05;;;16.90;;
51838;SDS011;37886;53.174;6.368;2023-02-28T04:33:50;25.17;;;16.85;;
51838;SDS011;37886;53.174;6.368;2023-02-28T04:36:16;21.40;;;16.48;;
51838;SDS011;37886;53.174;6.368;2023-02-28T04:38:45;21.15;;;15.70;;
51838;SDS011;37886;53.174;6.368;2023-02-28T04:41:12;26.38;;;17.55;;
51838;SDS011;37886;53.174;6.368;2023-02-28T04:43:38;31.02;;;18.02;;
51838;SDS011;37886;53.174;6.368;2023-02-28T04:46:04;22.95;;;15.32;;
51838;SDS011;37886;53.174;6.368;2023-02-28T04:48:32;18.83;;;15.38;;
51838;SDS011;37886;53.174;6.368;2023-02-28T04:51:02;20.52;;;14.82;;
51838;SDS011;37886;53.174;6.368;2023-02-28T04:53:33;21.15;;;15.35;;
51838;SDS011;37886;53.174;6.368;2023-02-28T04:55:59;17.40;;;13.38;;
51838;SDS011;37886;53.174;6.368;2023-02-28T04:58:25;15.85;;;12.98;;
51838;SDS011;37886;53.174;6.368;2023-02-28T05:00:51;17.13;;;13.52;;
51838;SDS011;37886;53.174;6.368;2023-02-28T05:03:17;16.05;;;13.48;;
51838;SDS011;37886;53.174;6.368;2023-02-28T05:05:43;19.35;;;12.43;;
51838;SDS011;37886;53.174;6.368;2023-02-28T05:08:09;16.13;;;12.82;;
51838;SDS011;37886;53.174;6.368;2023-02-28T05:10:36;20.45;;;14.20;;
51838;SDS011;37886;53.174;6.368;2023-02-28T05:13:02;20.20;;;14.52;;
51838;SDS011;37886;53.174;6.368;2023-02-28T05:15:28;18.60;;;14.13;;
51838;SDS011;37886;53.174;6.368;2023-02-28T05:17:53;22.27;;;14.07;;
51838;SDS011;37886;53.174;6.368;2023-02-28T05:20:19;22.00;;;13.85;;
51838;SDS011;37886;53.174;6.368;2023-02-28T05:22:46;21.38;;;13.70;;
51838;SDS011;37886;53.174;6.368;2023-02-28T05:25:13;20.20;;;15.02;;
51838;SDS011;37886;53.174;6.368;2023-02-28T05:27:44;24.98;;;15.07;;
51838;SDS011;37886;53.174;6.368;2023-02-28T05:30:10;26.23;;;16.27;;
51838;SDS011;37886;53.174;6.368;2023-02-28T05:32:37;23.80;;;15.48;;
51838;SDS011;37886;53.174;6.368;2023-02-28T05:35:04;24.60;;;15.57;;
51838;SDS011;37886;53.174;6.368;2023-02-28T05:37:30;25.67;;;17.25;;
51838;SDS011;37886;53.174;6.368;2023-02-28T05:39:55;26.88;;;17.00;;
51838;SDS011;37886;53.174;6.368;2023-02-28T05:42:21;24.40;;;17.08;;
51838;SDS011;37886;53.174;6.368;2023-02-28T05:44:47;28.67;;;18.27;;
51838;SDS011;37886;53.174;6.368;2023-02-28T05:47:13;34.97;;;21.83;;
51838;SDS011;37886;53.174;6.368;2023-02-28T05:49:40;33.17;;;20.45;;
51838;SDS011;37886;53.174;6.368;2023-02-28T05:52:06;28.83;;;19.80;;
51838;SDS011;37886;53.174;6.368;2023-02-28T05:54:33;32.08;;;21.08;;
51838;SDS011;37886;53.174;6.368;2023-02-28T05:56:58;31.67;;;20.50;;
51838;SDS011;37886;53.174;6.368;2023-02-28T05:59:24;29.60;;;20.77;;
51838;SDS011;37886;53.174;6.368;2023-02-28T06:01:50;31.58;;;22.27;;
51838;SDS011;37886;53.174;6.368;2023-02-28T06:04:18;29.73;;;20.20;;
51838;SDS011;37886;53.174;6.368;2023-02-28T06:06:46;30.20;;;20.25;;
51838;SDS011;37886;53.174;6.368;2023-02-28T06:09:12;29.30;;;20.90;;
51838;SDS011;37886;53.174;6.368;2023-02-28T06:11:38;29.35;;;20.15;;
51838;SDS011;37886;53.174;6.368;2023-02-28T06:14:04;28.60;;;20.80;;
51838;SDS011;37886;53.174;6.368;2023-02-28T06:16:30;28.00;;;21.20;;
51838;SDS011;37886;53.174;6.368;2023-02-28T06:18:59;23.73;;;17.95;;
51838;SDS011;37886;53.174;6.368;2023-02-28T06:21:26;31.80;;;20.50;;
51838;SDS011;37886;53.174;6.368;2023-02-28T06:23:55;32.78;;;19.38;;
51838;SDS011;37886;53.174;6.368;2023-02-28T06:26:22;30.35;;;20.65;;
51838;SDS011;37886;53.174;6.368;2023-02-28T06:28:47;31.85;;;20.67;;
51838;SDS011;37886;53.174;6.368;2023-02-28T06:31:14;28.92;;;20.55;;
51838;SDS011;37886;53.174;6.368;2023-02-28T06:33:42;30.52;;;20.58;;
51838;SDS011;37886;53.174;6.368;2023-02-28T06:36:09;33.75;;;22.88;;
51838;SDS011;37886;53.174;6.368;2023-02-28T06:38:37;35.47;;;23.83;;
51838;SDS011;37886;53.174;6.368;2023-02-28T06:41:04;40.72;;;25.10;;
51838;SDS011;37886;53.174;6.368;2023-02-28T06:43:32;41.55;;;26.02;;
51838;SDS011;37886;53.174;6.368;2023-02-28T06:46:00;42.05;;;25.52;;
51838;SDS011;37886;53.174;6.368;2023-02-28T06:48:27;39.22;;;25.85;;
51838;SDS011;37886;53.174;6.368;2023-02-28T06:51:07;34.47;;;22.75;;
51838;SDS011;37886;53.174;6.368;2023-02-28T06:53:35;36.38;;;22.83;;
51838;SDS011;37886;53.174;6.368;2023-02-28T06:56:05;35.17;;;23.05;;
51838;SDS011;37886;53.174;6.368;2023-02-28T06:58:32;34.75;;;22.65;;
51838;SDS011;37886;53.174;6.368;2023-02-28T07:00:59;32.20;;;22.92;;
51838;SDS011;37886;53.174;6.368;2023-02-28T07:03:24;41.65;;;23.67;;
51838;SDS011;37886;53.174;6.368;2023-02-28T07:05:50;34.17;;;24.23;;
51838;SDS011;37886;53.174;6.368;2023-02-28T07:08:16;43.83;;;25.83;;
51838;SDS011;37886;53.174;6.368;2023-02-28T07:10:42;39.60;;;25.02;;
51838;SDS011;37886;53.174;6.368;2023-02-28T07:13:08;39.80;;;26.17;;
51838;SDS011;37886;53.174;6.368;2023-02-28T07:15:37;36.25;;;25.17;;
51838;SDS011;37886;53.174;6.368;2023-02-28T07:18:03;34.53;;;24.00;;
51838;SDS011;37886;53.174;6.368;2023-02-28T07:20:29;34.50;;;23.10;;
51838;SDS011;37886;53.174;6.368;2023-02-28T07:22:55;37.53;;;25.08;;
51838;SDS011;37886;53.174;6.368;2023-02-28T07:25:25;39.22;;;24.95;;
51838;SDS011;37886;53.174;6.368;2023-02-28T07:27:53;34.67;;;23.15;;
51838;SDS011;37886;53.174;6.368;2023-02-28T07:30:20;37.63;;;25.58;;
51838;SDS011;37886;53.174;6.368;2023-02-28T07:32:46;42.28;;;27.00;;
51838;SDS011;37886;53.174;6.368;2023-02-28T07:35:11;42.65;;;26.92;;
51838;SDS011;37886;53.174;6.368;2023-02-28T07:37:37;40.72;;;26.02;;
51838;SDS011;37886;53.174;6.368;2023-02-28T07:40:07;44.03;;;26.80;;
51838;SDS011;37886;53.174;6.368;2023-02-28T07:42:36;42.85;;;26.95;;
51838;SDS011;37886;53.174;6.368;2023-02-28T07:45:03;42.95;;;27.63;;
51838;SDS011;37886;53.174;6.368;2023-02-28T07:47:30;36.33;;;24.63;;
51838;SDS011;37886;53.174;6.368;2023-02-28T07:49:56;39.63;;;25.50;;
51838;SDS011;37886;53.174;6.368;2023-02-28T07:52:22;41.15;;;26.63;;
51838;SDS011;37886;53.174;6.368;2023-02-28T07:54:49;37.58;;;27.40;;
51838;SDS011;37886;53.174;6.368;2023-02-28T07:57:15;38.08;;;27.35;;
51838;SDS011;37886;53.174;6.368;2023-02-28T07:59:41;39.97;;;26.38;;
51838;SDS011;37886;53.174;6.368;2023-02-28T08:02:12;39.60;;;26.30;;
51838;SDS011;37886;53.174;6.368;2023-02-28T08:04:39;38.67;;;26.50;;
51838;SDS011;37886;53.174;6.368;2023-02-28T08:07:05;37.47;;;25.55;;
51838;SDS011;37886;53.174;6.368;2023-02-28T08:09:30;36.85;;;24.35;;
51838;SDS011;37886;53.174;6.368;2023-02-28T08:11:56;31.77;;;23.55;;
51838;SDS011;37886;53.174;6.368;2023-02-28T08:14:22;39.60;;;23.23;;
51838;SDS011;37886;53.174;6.368;2023-02-28T08:16:47;32.22;;;24.15;;
51838;SDS011;37886;53.174;6.368;2023-02-28T08:19:13;35.60;;;23.83;;
51838;SDS011;37886;53.174;6.368;2023-02-28T08:21:39;35.17;;;23.70;;
51838;SDS011;37886;53.174;6.368;2023-02-28T08:24:05;34.33;;;23.55;;
51838;SDS011;37886;53.174;6.368;2023-02-28T08:26:31;33.58;;;23.08;;
51838;SDS011;37886;53.174;6.368;2023-02-28T08:28:56;37.70;;;24.42;;
51838;SDS011;37886;53.174;6.368;2023-02-28T08:31:22;32.33;;;23.33;;
51838;SDS011;37886;53.174;6.368;2023-02-28T08:33:48;37.53;;;24.73;;
51838;SDS011;37886;53.174;6.368;2023-02-28T08:36:16;34.42;;;22.40;;
51838;SDS011;37886;53.174;6.368;2023-02-28T08:38:42;27.83;;;21.38;;
51838;SDS011;37886;53.174;6.368;2023-02-28T08:41:09;29.13;;;22.25;;
51838;SDS011;37886;53.174;6.368;2023-02-28T08:43:36;30.83;;;21.85;;
51838;SDS011;37886;53.174;6.368;2023-02-28T08:46:03;33.90;;;22.85;;
51838;SDS011;37886;53.174;6.368;2023-02-28T08:48:30;32.00;;;21.67;;
51838;SDS011;37886;53.174;6.368;2023-02-28T08:50:58;33.25;;;22.52;;
51838;SDS011;37886;53.174;6.368;2023-02-28T08:53:26;28.83;;;21.17;;
51838;SDS011;37886;53.174;6.368;2023-02-28T08:55:55;34.38;;;21.38;;
51838;SDS011;37886;53.174;6.368;2023-02-28T08:58:29;31.45;;;21.85;;
51838;SDS011;37886;53.174;6.368;2023-02-28T09:00:55;28.17;;;20.30;;
51838;SDS011;37886;53.174;6.368;2023-02-28T09:03:21;28.35;;;20.23;;
51838;SDS011;37886;53.174;6.368;2023-02-28T09:05:55;31.85;;;22.17;;
51838;SDS011;37886;53.174;6.368;2023-02-28T09:08:23;29.58;;;22.13;;
51838;SDS011;37886;53.174;6.368;2023-02-28T09:10:50;28.42;;;21.02;;
51838;SDS011;37886;53.174;6.368;2023-02-28T09:13:17;26.27;;;20.10;;
51838;SDS011;37886;53.174;6.368;2023-02-28T09:15:43;24.58;;;18.25;;
51838;SDS011;37886;53.174;6.368;2023-02-28T09:18:09;28.45;;;20.15;;
51838;SDS011;37886;53.174;6.368;2023-02-28T09:20:37;23.83;;;18.70;;
51838;SDS011;37886;53.174;6.368;2023-02-28T09:23:04;26.23;;;19.13;;
51838;SDS011;37886;53.174;6.368;2023-02-28T09:25:30;28.17;;;18.77;;
51838;SDS011;37886;53.174;6.368;2023-02-28T09:27:56;25.27;;;18.08;;
51838;SDS011;37886;53.174;6.368;2023-02-28T09:30:22;24.75;;;18.17;;
51838;SDS011;37886;53.174;6.368;2023-02-28T09:32:47;24.75;;;17.33;;
51838;SDS011;37886;53.174;6.368;2023-02-28T09:35:20;26.25;;;16.30;;
51838;SDS011;37886;53.174;6.368;2023-02-28T09:37:47;22.95;;;16.13;;
51838;SDS011;37886;53.174;6.368;2023-02-28T09:40:21;19.65;;;15.77;;
51838;SDS011;37886;53.174;6.368;2023-02-28T09:42:49;18.70;;;16.52;;
51838;SDS011;37886;53.174;6.368;2023-02-28T09:47:56;19.83;;;16.15;;
51838;SDS011;37886;53.174;6.368;2023-02-28T09:50:36;23.60;;;16.40;;
51838;SDS011;37886;53.174;6.368;2023-02-28T09:53:04;26.77;;;16.35;;
51838;SDS011;37886;53.174;6.368;2023-02-28T09:55:55;24.35;;;17.23;;
51838;SDS011;37886;53.174;6.368;2023-02-28T09:58:39;22.15;;;16.77;;
51838;SDS011;37886;53.174;6.368;2023-02-28T10:04:33;23.70;;;16.88;;
51838;SDS011;37886;53.174;6.368;2023-02-28T10:06:48;23.75;;;16.88;;
51838;SDS011;37886;53.174;6.368;2023-02-28T10:09:25;20.98;;;15.50;;
51838;SDS011;37886;53.174;6.368;2023-02-28T10:11:57;19.42;;;15.57;;
51838;SDS011;37886;53.174;6.368;2023-02-28T10:14:30;22.02;;;15.05;;
51838;SDS011;37886;53.174;6.368;2023-02-28T10:17:08;20.10;;;14.93;;
51838;SDS011;37886;53.174;6.368;2023-02-28T10:22:32;22.70;;;14.45;;
51838;SDS011;37886;53.174;6.368;2023-02-28T10:25:20;23.00;;;15.25;;
51838;SDS011;37886;53.174;6.368;2023-02-28T10:27:49;17.42;;;13.70;;
51838;SDS011;37886;53.174;6.368;2023-02-28T10:30:18;19.17;;;15.27;;
51838;SDS011;37886;53.174;6.368;2023-02-28T10:32:49;19.23;;;14.88;;
51838;SDS011;37886;53.174;6.368;2023-02-28T10:35:21;22.67;;;15.18;;
51838;SDS011;37886;53.174;6.368;2023-02-28T10:37:50;19.67;;;13.88;;
51838;SDS011;37886;53.174;6.368;2023-02-28T10:43:04;17.90;;;14.15;;
51838;SDS011;37886;53.174;6.368;2023-02-28T10:45:34;18.55;;;11.95;;
51838;SDS011;37886;53.174;6.368;2023-02-28T10:48:04;18.33;;;11.38;;
51838;SDS011;37886;53.174;6.368;2023-02-28T10:55:43;15.20;;;9.90;;
51838;SDS011;37886;53.174;6.368;2023-02-28T10:58:22;14.30;;;10.88;;
51838;SDS011;37886;53.174;6.368;2023-02-28T11:00:48;12.38;;;10.02;;
51838;SDS011;37886;53.174;6.368;2023-02-28T11:03:25;13.63;;;10.07;;
51838;SDS011;37886;53.174;6.368;2023-02-28T11:05:56;19.63;;;11.05;;
51838;SDS011;37886;53.174;6.368;2023-02-28T11:08:23;19.40;;;12.02;;
51838;SDS011;37886;53.174;6.368;2023-02-28T11:10:56;16.00;;;11.30;;
51838;SDS011;37886;53.174;6.368;2023-02-28T11:13:32;12.50;;;11.10;;
51838;SDS011;37886;53.174;6.368;2023-02-28T11:16:10;14.77;;;10.30;;
51838;SDS011;37886;53.174;6.368;2023-02-28T11:21:23;10.10;;;8.50;;
51838;SDS011;37886;53.174;6.368;2023-02-28T11:24:22;9.57;;;8.57;;
51838;SDS011;37886;53.174;6.368;2023-02-28T11:26:49;10.20;;;8.00;;
51838;SDS011;37886;53.174;6.368;2023-02-28T11:29:22;11.63;;;8.25;;
51838;SDS011;37886;53.174;6.368;2023-02-28T11:34:38;12.68;;;9.23;;
51838;SDS011;37886;53.174;6.368;2023-02-28T11:37:09;10.60;;;9.50;;
51838;SDS011;37886;53.174;6.368;2023-02-28T11:39:41;10.75;;;8.25;;
51838;SDS011;37886;53.174;6.368;2023-02-28T11:42:15;12.82;;;8.90;;
51838;SDS011;37886;53.174;6.368;2023-02-28T11:48:08;13.60;;;9.23;;
51838;SDS011;37886;53.174;6.368;2023-02-28T11:50:42;12.15;;;8.43;;
51838;SDS011;37886;53.174;6.368;2023-02-28T11:56:31;11.90;;;8.85;;
51838;SDS011;37886;53.174;6.368;2023-02-28T11:59:11;10.52;;;8.45;;
51838;SDS011;37886;53.174;6.368;2023-02-28T12:07:55;11.52;;;9.07;;
51838;SDS011;37886;53.174;6.368;2023-02-28T12:10:38;9.00;;;8.07;;
51838;SDS011;37886;53.174;6.368;2023-02-28T12:24:39;11.10;;;7.97;;
51838;SDS011;37886;53.174;6.368;2023-02-28T12:27:11;9.73;;;8.82;;
51838;SDS011;37886;53.174;6.368;2023-02-28T12:29:43;9.75;;;8.68;;
51838;SDS011;37886;53.174;6.368;2023-02-28T12:32:36;9.48;;;8.30;;
51838;SDS011;37886;53.174;6.368;2023-02-28T12:37:42;10.00;;;8.95;;
51838;SDS011;37886;53.174;6.368;2023-02-28T12:40:12;9.73;;;8.90;;
51838;SDS011;37886;53.174;6.368;2023-02-28T12:43:02;9.75;;;9.00;;
51838;SDS011;37886;53.174;6.368;2023-02-28T12:48:14;11.82;;;10.75;;
51838;SDS011;37886;53.174;6.368;2023-02-28T12:50:45;12.93;;;11.73;;
51838;SDS011;37886;53.174;6.368;2023-02-28T12:53:22;11.48;;;10.55;;
51838;SDS011;37886;53.174;6.368;2023-02-28T12:56:09;12.07;;;11.07;;
51838;SDS011;37886;53.174;6.368;2023-02-28T12:58:41;11.73;;;10.65;;
51838;SDS011;37886;53.174;6.368;2023-02-28T13:03:50;13.05;;;11.95;;
51838;SDS011;37886;53.174;6.368;2023-02-28T13:09:16;12.05;;;10.88;;
51838;SDS011;37886;53.174;6.368;2023-02-28T13:11:46;11.45;;;10.55;;
51838;SDS011;37886;53.174;6.368;2023-02-28T13:14:24;12.75;;;11.60;;
51838;SDS011;37886;53.174;6.368;2023-02-28T13:19:33;12.38;;;11.15;;
51838;SDS011;37886;53.174;6.368;2023-02-28T13:22:02;13.30;;;11.65;;
51838;SDS011;37886;53.174;6.368;2023-02-28T13:24:40;12.27;;;11.38;;
51838;SDS011;37886;53.174;6.368;2023-02-28T13:34:41;13.95;;;12.65;;
51838;SDS011;37886;53.174;6.368;2023-02-28T13:37:32;13.57;;;12.47;;
51838;SDS011;37886;53.174;6.368;2023-02-28T13:40:28;13.65;;;12.25;;
51838;SDS011;37886;53.174;6.368;2023-02-28T13:42:54;14.30;;;12.90;;
51838;SDS011;37886;53.174;6.368;2023-02-28T13:45:21;14.82;;;12.55;;
51838;SDS011;37886;53.174;6.368;2023-02-28T13:58:41;12.77;;;11.68;;
51838;SDS011;37886;53.174;6.368;2023-02-28T14:06:34;13.05;;;11.95;;
51838;SDS011;37886;53.174;6.368;2023-02-28T14:14:00;14.32;;;12.82;;
51838;SDS011;37886;53.174;6.368;2023-02-28T14:16:48;15.73;;;14.13;;
51838;SDS011;37886;53.174;6.368;2023-02-28T14:19:24;14.07;;;12.80;;
51838;SDS011;37886;53.174;6.368;2023-02-28T14:22:02;15.20;;;13.80;;
51838;SDS011;37886;53.174;6.368;2023-02-28T14:27:29;16.92;;;14.57;;
51838;SDS011;37886;53.174;6.368;2023-02-28T14:33:00;14.70;;;13.40;;
51838;SDS011;37886;53.174;6.368;2023-02-28T14:38:31;14.90;;;13.45;;
51838;SDS011;37886;53.174;6.368;2023-02-28T14:41:02;14.95;;;13.55;;
51838;SDS011;37886;53.174;6.368;2023-02-28T14:43:31;15.70;;;14.20;;
51838;SDS011;37886;53.174;6.368;2023-02-28T14:46:01;14.88;;;13.55;;
51838;SDS011;37886;53.174;6.368;2023-02-28T14:48:29;14.40;;;13.02;;
51838;SDS011;37886;53.174;6.368;2023-02-28T14:50:56;15.60;;;14.18;;
51838;SDS011;37886;53.174;6.368;2023-02-28T14:53:25;14.10;;;13.00;;
51838;SDS011;37886;53.174;6.368;2023-02-28T14:55:53;15.90;;;14.18;;
51838;SDS011;37886;53.174;6.368;2023-02-28T15:00:48;16.20;;;14.60;;
51838;SDS011;37886;53.174;6.368;2023-02-28T15:03:20;15.63;;;14.13;;
51838;SDS011;37886;53.174;6.368;2023-02-28T15:05:56;15.85;;;14.43;;
51838;SDS011;37886;53.174;6.368;2023-02-28T15:08:23;16.88;;;15.38;;
51838;SDS011;37886;53.174;6.368;2023-02-28T15:10:57;15.63;;;14.10;;
51838;SDS011;37886;53.174;6.368;2023-02-28T15:13:28;15.57;;;13.98;;
51838;SDS011;37886;53.174;6.368;2023-02-28T15:21:18;15.75;;;14.05;;
51838;SDS011;37886;53.174;6.368;2023-02-28T15:23:51;15.65;;;14.02;;
51838;SDS011;37886;53.174;6.368;2023-02-28T15:26:22;15.55;;;14.07;;
51838;SDS011;37886;53.174;6.368;2023-02-28T15:28:54;15.88;;;14.48;;
51838;SDS011;37886;53.174;6.368;2023-02-28T15:32:01;15.68;;;14.15;;
51838;SDS011;37886;53.174;6.368;2023-02-28T15:37:06;15.90;;;14.40;;
51838;SDS011;37886;53.174;6.368;2023-02-28T15:39:53;18.52;;;16.85;;
51838;SDS011;37886;53.174;6.368;2023-02-28T15:42:21;19.45;;;14.93;;
51838;SDS011;37886;53.174;6.368;2023-02-28T15:44:56;18.35;;;16.55;;
51838;SDS011;37886;53.174;6.368;2023-02-28T15:47:23;17.50;;;14.75;;
51838;SDS011;37886;53.174;6.368;2023-02-28T15:49:51;17.60;;;15.80;;
51838;SDS011;37886;53.174;6.368;2023-02-28T15:52:32;18.45;;;16.45;;
51838;SDS011;37886;53.174;6.368;2023-02-28T15:55:07;16.75;;;15.15;;
51838;SDS011;37886;53.174;6.368;2023-02-28T15:57:38;17.85;;;16.23;;
51838;SDS011;37886;53.174;6.368;2023-02-28T16:00:06;17.67;;;16.02;;
51838;SDS011;37886;53.174;6.368;2023-02-28T16:02:36;17.85;;;16.15;;
51838;SDS011;37886;53.174;6.368;2023-02-28T16:05:17;18.20;;;16.40;;
51838;SDS011;37886;53.174;6.368;2023-02-28T16:07:53;17.07;;;15.20;;
51838;SDS011;37886;53.174;6.368;2023-02-28T16:10:21;18.40;;;16.48;;
51838;SDS011;37886;53.174;6.368;2023-02-28T16:12:52;17.13;;;15.43;;
51838;SDS011;37886;53.174;6.368;2023-02-28T16:15:20;17.00;;;15.32;;
51838;SDS011;37886;53.174;6.368;2023-02-28T16:17:49;17.57;;;15.87;;
51838;SDS011;37886;53.174;6.368;2023-02-28T16:20:16;18.10;;;16.35;;
51838;SDS011;37886;53.174;6.368;2023-02-28T16:22:44;17.60;;;15.68;;
51838;SDS011;37886;53.174;6.368;2023-02-28T16:25:11;22.15;;;16.23;;
51838;SDS011;37886;53.174;6.368;2023-02-28T16:27:41;17.90;;;16.17;;
51838;SDS011;37886;53.174;6.368;2023-02-28T16:30:21;16.48;;;14.77;;
51838;SDS011;37886;53.174;6.368;2023-02-28T16:32:53;17.52;;;15.02;;
51838;SDS011;37886;53.174;6.368;2023-02-28T16:35:20;16.88;;;15.18;;
51838;SDS011;37886;53.174;6.368;2023-02-28T16:37:47;16.42;;;14.85;;
51838;SDS011;37886;53.174;6.368;2023-02-28T16:40:13;17.67;;;14.73;;
51838;SDS011;37886;53.174;6.368;2023-02-28T16:42:45;19.70;;;15.50;;
51838;SDS011;37886;53.174;6.368;2023-02-28T16:45:17;17.27;;;15.48;;
51838;SDS011;37886;53.174;6.368;2023-02-28T16:47:46;20.42;;;14.30;;
51838;SDS011;37886;53.174;6.368;2023-02-28T16:50:19;16.80;;;13.15;;
51838;SDS011;37886;53.174;6.368;2023-02-28T16:52:49;18.27;;;13.35;;
51838;SDS011;37886;53.174;6.368;2023-02-28T16:55:17;15.80;;;14.23;;
51838;SDS011;37886;53.174;6.368;2023-02-28T16:57:43;16.30;;;14.38;;
51838;SDS011;37886;53.174;6.368;2023-02-28T17:00:12;15.23;;;13.43;;
51838;SDS011;37886;53.174;6.368;2023-02-28T17:02:38;17.10;;;13.45;;